Time;durP1;ratioP1;P1;durP2;ratioP2;P2;SDS_P1;SDS_P2;PMS_P1;PMS_P2;Temp;Humidity;BMP_temperature;BMP_pressure;BME280_temperature;BME280_humidity;BME280_pressure;Samples;Min_cycle;Max_cycle;Signal;HPM_P1;HPM_P2
2022/03/25 00:01:31;;;;;;;35.63;14.90;;;8.40;99.90;;;;;;5065096;28;20029;-72
2022/03/25 00:03:57;;;;;;;42.83;16.90;;;8.30;99.90;;;;;;5064841;28;20033;-73
2022/03/25 00:06:23;;;;;;;38.97;15.15;;;8.30;99.90;;;;;;5063441;28;20033;-73
2022/03/25 00:08:49;;;;;;;39.17;14.90;;;8.30;99.90;;;;;;5064506;28;20508;-73
2022/03/25 00:11:15;;;;;;;42.60;15.73;;;8.30;99.90;;;;;;5064787;28;20032;-73
2022/03/25 00:13:40;;;;;;;41.70;17.10;;;8.30;99.90;;;;;;5064332;28;20021;-74
2022/03/25 00:16:06;;;;;;;41.80;16.13;;;8.30;99.90;;;;;;5063422;28;20031;-73
2022/03/25 00:18:34;;;;;;;41.30;16.23;;;8.30;99.90;;;;;;5064604;28;20056;-73
2022/03/25 00:21:00;;;;;;;46.65;14.23;;;8.30;99.90;;;;;;5064624;28;20036;-73
2022/03/25 00:23:26;;;;;;;47.35;16.05;;;8.30;99.90;;;;;;5064875;28;20109;-72
2022/03/25 00:25:51;;;;;;;48.75;18.15;;;8.30;99.90;;;;;;5064218;28;20021;-73
2022/03/25 00:28:17;;;;;;;57.33;19.00;;;8.30;99.90;;;;;;5063675;28;20025;-73
2022/03/25 00:30:43;;;;;;;41.47;16.90;;;8.20;99.90;;;;;;5064325;28;20037;-73
2022/03/25 00:33:13;;;;;;;47.30;17.20;;;8.20;99.90;;;;;;5064147;28;20036;-75
2022/03/25 00:35:40;;;;;;;41.65;15.85;;;8.20;99.90;;;;;;5064465;28;20060;-73
2022/03/25 00:38:06;;;;;;;42.63;15.82;;;8.10;99.90;;;;;;5064710;28;20075;-73
2022/03/25 00:40:32;;;;;;;48.17;16.58;;;8.10;99.90;;;;;;5063167;28;20029;-73
2022/03/25 00:43:01;;;;;;;43.92;17.00;;;8.00;99.90;;;;;;5064552;28;20100;-74
2022/03/25 00:45:29;;;;;;;53.42;19.17;;;7.90;99.90;;;;;;5064634;28;20028;-72
2022/03/25 00:47:56;;;;;;;54.75;18.55;;;7.90;99.90;;;;;;5063874;28;20025;-72
2022/03/25 00:50:21;;;;;;;53.53;18.73;;;7.90;99.90;;;;;;5046265;28;20033;-73
2022/03/25 00:52:58;;;;;;;36.67;17.75;;;7.90;99.90;;;;;;5064142;28;20021;-74
2022/03/25 00:55:24;;;;;;;41.72;18.23;;;7.90;99.90;;;;;;5046029;28;20025;-73
2022/03/25 00:57:49;;;;;;;48.85;17.80;;;7.90;99.90;;;;;;5064295;28;20017;-74
2022/03/25 01:00:15;;;;;;;38.00;16.75;;;7.90;99.90;;;;;;5046436;28;20025;-74
2022/03/25 01:02:40;;;;;;;41.42;18.65;;;7.90;99.90;;;;;;5063962;28;20059;-73
2022/03/25 01:05:07;;;;;;;46.00;17.75;;;7.80;99.90;;;;;;5064497;28;20070;-74
2022/03/25 01:07:34;;;;;;;47.38;16.85;;;7.70;99.90;;;;;;5046472;28;20384;-75
2022/03/25 01:10:00;;;;;;;51.13;18.50;;;7.80;99.90;;;;;;5064043;28;20040;-73
2022/03/25 01:12:29;;;;;;;49.25;19.25;;;7.80;99.90;;;;;;5064212;28;20040;-75
2022/03/25 01:14:54;;;;;;;48.80;18.17;;;7.70;99.90;;;;;;5062944;28;20029;-74
2022/03/25 01:17:20;;;;;;;45.83;17.85;;;7.70;99.90;;;;;;5062484;28;20025;-73
2022/03/25 01:19:46;;;;;;;53.78;18.30;;;7.70;99.90;;;;;;5065293;28;20044;-73
2022/03/25 01:22:16;;;;;;;44.00;17.02;;;7.70;99.90;;;;;;5067565;28;20021;-74
2022/03/25 01:24:41;;;;;;;60.05;19.77;;;7.70;99.90;;;;;;5067614;28;20036;-73
2022/03/25 01:27:07;;;;;;;44.30;17.30;;;7.70;99.90;;;;;;5067822;28;20783;-74
2022/03/25 01:29:33;;;;;;;46.33;16.65;;;7.60;99.90;;;;;;5067800;28;20057;-74
2022/03/25 01:31:59;;;;;;;57.50;17.85;;;7.60;99.90;;;;;;5067414;28;20080;-74
2022/03/25 01:34:25;;;;;;;50.55;18.23;;;7.60;99.90;;;;;;5067748;28;20052;-73
2022/03/25 01:36:50;;;;;;;50.22;18.20;;;7.50;99.90;;;;;;5067495;28;20025;-74
2022/03/25 01:39:16;;;;;;;54.47;18.35;;;7.50;99.90;;;;;;5067276;28;20036;-73
2022/03/25 01:41:43;;;;;;;46.10;18.45;;;7.50;99.90;;;;;;5067464;28;20484;-74
2022/03/25 01:44:11;;;;;;;50.20;18.30;;;7.50;99.90;;;;;;5067358;28;20029;-75
2022/03/25 01:46:37;;;;;;;59.45;19.05;;;7.60;99.90;;;;;;5067363;28;20028;-73
2022/03/25 01:49:02;;;;;;;48.80;19.17;;;7.60;99.90;;;;;;5067542;28;20029;-73
2022/03/25 01:51:36;;;;;;;49.55;18.52;;;7.60;99.90;;;;;;5049352;28;20037;-73
2022/03/25 01:54:22;;;;;;;38.30;14.55;;;7.60;99.90;;;;;;5067653;28;20491;-73
2022/03/25 01:56:56;;;;;;;48.90;19.48;;;7.70;99.90;;;;;;5067362;28;20029;-73
2022/03/25 01:59:23;;;;;;;49.33;18.60;;;7.70;99.90;;;;;;5066888;28;20033;-73
2022/03/25 02:01:51;;;;;;;48.72;19.10;;;7.70;99.90;;;;;;5067160;28;20063;-74
2022/03/25 02:04:20;;;;;;;47.72;19.75;;;7.70;99.90;;;;;;5067119;28;20423;-74
2022/03/25 02:06:45;;;;;;;49.20;18.38;;;7.80;99.90;;;;;;5065356;28;20115;-73
2022/03/25 02:09:12;;;;;;;46.10;18.08;;;7.70;99.90;;;;;;5065805;28;20438;-74
2022/03/25 02:11:38;;;;;;;54.22;20.40;;;7.70;99.90;;;;;;5066953;28;20063;-74
2022/03/25 02:14:04;;;;;;;56.78;20.08;;;7.70;99.90;;;;;;5066556;28;20040;-73
2022/03/25 02:16:43;;;;;;;43.30;17.58;;;7.60;99.90;;;;;;5066952;28;20043;-73
2022/03/25 02:19:19;;;;;;;54.90;18.88;;;7.60;99.90;;;;;;5081825;28;20062;-75
2022/03/25 02:21:48;;;;;;;52.85;18.00;;;7.60;99.90;;;;;;5086348;28;20029;-74
2022/03/25 02:24:15;;;;;;;43.17;16.63;;;7.50;99.90;;;;;;5079673;28;20021;-74
2022/03/25 02:26:41;;;;;;;50.28;19.30;;;7.40;99.90;;;;;;5072710;28;20029;-74
2022/03/25 02:29:13;;;;;;;53.95;19.20;;;7.40;99.90;;;;;;5077120;28;20062;-74
2022/03/25 02:31:39;;;;;;;55.42;21.00;;;7.40;99.90;;;;;;5086157;28;20028;-73
2022/03/25 02:34:08;;;;;;;52.25;19.17;;;7.40;99.90;;;;;;5086340;28;20051;-74
2022/03/25 02:36:45;;;;;;;66.60;21.52;;;7.40;99.90;;;;;;5068425;28;20037;-74
2022/03/25 02:39:12;;;;;;;50.67;19.45;;;7.40;99.90;;;;;;5084073;28;20020;-74
2022/03/25 02:41:38;;;;;;;56.90;19.77;;;7.40;99.90;;;;;;5065782;28;20074;-74
2022/03/25 02:44:04;;;;;;;52.08;21.30;;;7.40;99.90;;;;;;5066639;28;20025;-74
2022/03/25 02:46:30;;;;;;;49.03;21.70;;;7.40;99.90;;;;;;5066418;28;20025;-73
2022/03/25 02:48:59;;;;;;;57.80;20.38;;;7.40;99.90;;;;;;5065640;28;20450;-74
2022/03/25 02:51:25;;;;;;;41.25;18.10;;;7.40;99.90;;;;;;5048096;28;20033;-73
2022/03/25 02:53:51;;;;;;;50.30;21.23;;;7.40;99.90;;;;;;5066218;28;20036;-73
2022/03/25 02:56:18;;;;;;;54.90;22.00;;;7.40;99.90;;;;;;5065656;28;20039;-74
2022/03/25 02:58:45;;;;;;;62.50;22.10;;;7.40;99.90;;;;;;5066168;28;20044;-74
2022/03/25 03:01:10;;;;;;;48.67;20.52;;;7.30;99.90;;;;;;5065886;28;20025;-74
2022/03/25 03:03:36;;;;;;;62.17;24.67;;;7.30;99.90;;;;;;5065519;28;20078;-74
2022/03/25 03:06:03;;;;;;;59.85;22.20;;;7.20;99.90;;;;;;5066157;28;20036;-73
2022/03/25 03:08:30;;;;;;;48.35;19.95;;;7.20;99.90;;;;;;5066399;28;20109;-73
2022/03/25 03:10:55;;;;;;;71.53;21.27;;;7.10;99.90;;;;;;5052019;28;20052;-73
2022/03/25 03:13:21;;;;;;;49.65;21.45;;;7.10;99.90;;;;;;5067507;28;20051;-73
2022/03/25 03:15:50;;;;;;;49.63;20.33;;;7.00;99.90;;;;;;5065481;28;20028;-73
2022/03/25 03:18:16;;;;;;;56.92;20.77;;;7.00;99.90;;;;;;5065226;28;20041;-73
2022/03/25 03:20:42;;;;;;;49.60;19.08;;;7.00;99.90;;;;;;5047709;28;20029;-74
2022/03/25 03:23:08;;;;;;;55.25;20.27;;;6.90;99.90;;;;;;5065409;28;20085;-74
2022/03/25 03:25:35;;;;;;;52.05;20.88;;;6.90;99.90;;;;;;5065498;28;20048;-74
2022/03/25 03:28:01;;;;;;;48.72;18.65;;;6.80;99.90;;;;;;5065800;28;20088;-73
2022/03/25 03:30:27;;;;;;;53.50;20.70;;;6.80;99.90;;;;;;5065324;28;20052;-74
2022/03/25 03:32:57;;;;;;;54.63;20.73;;;6.70;99.90;;;;;;5047542;28;20061;-74
2022/03/25 03:35:24;;;;;;;48.47;21.77;;;6.60;99.90;;;;;;5065464;28;20043;-73
2022/03/25 03:37:50;;;;;;;56.28;22.35;;;6.60;99.90;;;;;;5047110;28;20122;-74
2022/03/25 03:40:16;;;;;;;53.03;20.95;;;6.60;99.90;;;;;;5065155;28;20039;-75
2022/03/25 03:42:42;;;;;;;57.25;22.08;;;6.60;99.90;;;;;;5064809;28;20021;-73
2022/03/25 03:45:08;;;;;;;47.78;19.50;;;6.50;99.90;;;;;;5065160;28;20461;-73
2022/03/25 03:47:34;;;;;;;52.45;20.45;;;6.50;99.90;;;;;;5064385;28;20036;-74
2022/03/25 03:50:01;;;;;;;65.05;21.52;;;6.40;99.90;;;;;;5065138;28;20055;-74
2022/03/25 03:52:26;;;;;;;55.63;21.77;;;6.40;99.90;;;;;;5064704;28;20021;-74
2022/03/25 03:54:52;;;;;;;68.38;20.80;;;6.40;99.90;;;;;;5065072;28;20039;-73
2022/03/25 03:57:18;;;;;;;59.33;22.13;;;6.30;99.90;;;;;;5064867;28;20036;-74
2022/03/25 03:59:43;;;;;;;55.17;22.52;;;6.30;99.90;;;;;;5064585;28;20032;-74
2022/03/25 04:02:10;;;;;;;57.80;21.48;;;6.30;99.90;;;;;;5063598;28;20092;-74
2022/03/25 04:04:36;;;;;;;59.97;22.02;;;6.20;99.90;;;;;;5064712;28;20021;-74
2022/03/25 04:07:02;;;;;;;57.67;21.23;;;6.20;99.90;;;;;;5065135;28;20025;-74
2022/03/25 04:09:27;;;;;;;54.65;21.95;;;6.20;99.90;;;;;;5064901;28;20041;-74
2022/03/25 04:11:54;;;;;;;66.82;23.67;;;6.20;99.90;;;;;;5063438;28;20035;-74
2022/03/25 04:14:20;;;;;;;56.80;22.00;;;6.20;99.90;;;;;;5047657;28;20029;-74
2022/03/25 04:16:46;;;;;;;55.33;21.73;;;6.20;99.90;;;;;;5044746;28;20014;-74
2022/03/25 04:19:12;;;;;;;69.47;24.27;;;6.10;99.90;;;;;;5044330;28;20046;-74
2022/03/25 04:21:38;;;;;;;59.85;22.85;;;6.10;99.90;;;;;;5044791;28;20044;-73
2022/03/25 04:24:04;;;;;;;56.80;24.55;;;6.10;99.90;;;;;;5044951;28;20037;-74
2022/03/25 04:26:30;;;;;;;62.28;23.50;;;6.00;99.90;;;;;;5044639;28;20032;-73
2022/03/25 04:28:55;;;;;;;55.47;22.33;;;6.00;99.90;;;;;;5053157;28;20060;-73
2022/03/25 04:31:21;;;;;;;48.50;21.92;;;6.00;99.90;;;;;;5064918;28;20033;-73
2022/03/25 04:33:47;;;;;;;57.85;22.58;;;5.90;99.90;;;;;;5064058;28;20036;-73
2022/03/25 04:36:13;;;;;;;63.17;21.85;;;5.90;99.90;;;;;;5064388;28;20104;-75
2022/03/25 04:38:48;;;;;;;58.72;21.83;;;5.80;99.90;;;;;;5064720;28;20028;-75
2022/03/25 04:41:14;;;;;;;59.97;23.30;;;5.80;99.90;;;;;;5062841;28;20036;-74
2022/03/25 04:43:40;;;;;;;58.10;22.00;;;5.70;99.90;;;;;;5064673;28;20025;-74
2022/03/25 04:46:06;;;;;;;55.10;21.10;;;5.80;99.90;;;;;;5064497;28;20029;-74
2022/03/25 04:48:32;;;;;;;50.63;22.88;;;5.80;99.90;;;;;;5064274;28;20032;-74
2022/03/25 04:50:58;;;;;;;60.08;22.85;;;5.80;99.90;;;;;;5063800;28;20100;-74
2022/03/25 04:53:25;;;;;;;54.53;23.80;;;5.80;99.90;;;;;;5064244;28;20028;-75
2022/03/25 04:55:51;;;;;;;62.10;23.70;;;5.70;99.90;;;;;;5067266;28;20025;-75
2022/03/25 04:58:17;;;;;;;56.55;23.23;;;5.80;99.90;;;;;;5068299;28;20048;-74
2022/03/25 05:00:43;;;;;;;50.97;22.55;;;5.70;99.90;;;;;;5055597;28;20028;-74
2022/03/25 05:03:08;;;;;;;67.43;24.33;;;5.70;99.90;;;;;;5067993;28;20021;-74
2022/03/25 05:05:34;;;;;;;66.55;24.50;;;5.60;99.90;;;;;;5068489;28;20040;-74
2022/03/25 05:08:00;;;;;;;57.83;23.42;;;5.60;99.90;;;;;;5066820;28;20017;-74
2022/03/25 05:10:25;;;;;;;71.50;26.70;;;5.60;99.90;;;;;;5067966;28;20064;-74
2022/03/25 05:12:51;;;;;;;64.68;25.77;;;5.60;99.90;;;;;;5067993;28;20045;-74
2022/03/25 05:15:17;;;;;;;70.50;24.60;;;5.60;99.90;;;;;;5067666;28;20021;-75
2022/03/25 05:17:44;;;;;;;63.97;25.15;;;5.60;99.90;;;;;;5070988;28;20052;-75
2022/03/25 05:20:11;;;;;;;66.72;27.67;;;5.70;99.90;;;;;;5087965;28;20040;-70
2022/03/25 05:22:36;;;;;;;66.03;26.23;;;5.60;99.90;;;;;;5072381;28;20037;-71
2022/03/25 05:25:06;;;;;;;67.13;26.58;;;5.60;99.90;;;;;;5058694;28;20041;-72
2022/03/25 05:27:42;;;;;;;70.78;26.10;;;5.60;99.90;;;;;;5072239;28;20029;-70
2022/03/25 05:30:08;;;;;;;78.90;27.23;;;5.60;99.90;;;;;;5070833;28;20120;-72
2022/03/25 05:32:34;;;;;;;72.43;27.45;;;5.60;99.90;;;;;;5076198;28;20443;-70
2022/03/25 05:35:08;;;;;;;69.30;25.70;;;5.60;99.90;;;;;;5069869;28;20021;-71
2022/03/25 05:37:35;;;;;;;64.10;25.20;;;5.60;99.90;;;;;;5067549;28;20036;-71
2022/03/25 05:40:01;;;;;;;82.30;27.50;;;5.60;99.90;;;;;;5079003;28;20028;-70
2022/03/25 05:42:27;;;;;;;69.95;26.90;;;5.50;99.90;;;;;;5087402;28;20035;-70
2022/03/25 05:44:52;;;;;;;82.43;27.65;;;5.60;99.90;;;;;;5087264;28;20115;-72
2022/03/25 05:47:18;;;;;;;61.05;25.10;;;5.70;99.90;;;;;;5080140;28;20036;-70
2022/03/25 05:49:44;;;;;;;71.45;27.48;;;5.70;99.90;;;;;;5087150;28;20063;-70
2022/03/25 05:52:09;;;;;;;72.50;26.55;;;5.70;99.90;;;;;;5086760;28;20092;-71
2022/03/25 05:54:50;;;;;;;63.30;26.73;;;5.80;99.90;;;;;;5068505;28;20489;-73
2022/03/25 05:57:16;;;;;;;82.70;27.20;;;5.80;99.90;;;;;;5051745;28;20033;-70
2022/03/25 05:59:41;;;;;;;75.45;27.77;;;5.80;99.90;;;;;;5037478;28;20117;-72
2022/03/25 06:02:08;;;;;;;70.15;29.00;;;5.80;99.90;;;;;;5055205;28;20018;-71
2022/03/25 06:04:34;;;;;;;71.80;27.20;;;5.80;99.90;;;;;;5063296;28;20024;-70
2022/03/25 06:06:59;;;;;;;77.57;28.02;;;5.90;99.90;;;;;;5035957;28;20051;-70
2022/03/25 06:09:25;;;;;;;81.80;26.13;;;5.90;99.90;;;;;;5049735;28;20075;-70
2022/03/25 06:11:51;;;;;;;85.28;27.75;;;5.90;99.90;;;;;;5050876;28;20033;-71
2022/03/25 06:14:17;;;;;;;80.50;30.08;;;6.00;99.90;;;;;;5055163;28;20018;-70
2022/03/25 06:16:43;;;;;;;66.72;27.15;;;6.00;99.90;;;;;;5053156;28;20510;-71
2022/03/25 06:19:08;;;;;;;69.30;28.15;;;6.00;99.90;;;;;;5066219;28;20049;-69
2022/03/25 06:21:34;;;;;;;70.03;25.35;;;6.10;99.90;;;;;;5067030;28;20029;-71
2022/03/25 06:24:04;;;;;;;77.13;28.17;;;6.00;99.90;;;;;;5066781;28;20084;-70
2022/03/25 06:26:30;;;;;;;70.13;26.80;;;6.10;99.90;;;;;;5061658;28;20029;-70
2022/03/25 06:28:55;;;;;;;79.28;26.20;;;6.10;99.90;;;;;;5063999;28;20029;-70
2022/03/25 06:31:21;;;;;;;81.93;27.50;;;6.20;99.90;;;;;;5036644;28;20036;-70
2022/03/25 06:33:46;;;;;;;80.45;28.48;;;6.40;99.90;;;;;;5055251;28;20455;-71
2022/03/25 06:36:13;;;;;;;72.10;26.92;;;6.40;99.90;;;;;;5053241;28;20039;-70
2022/03/25 06:38:40;;;;;;;97.28;30.77;;;6.50;99.90;;;;;;5063540;28;20025;-71
2022/03/25 06:41:07;;;;;;;92.32;30.15;;;6.60;99.90;;;;;;5063524;28;20056;-71
2022/03/25 06:43:34;;;;;;;87.70;29.17;;;6.70;99.90;;;;;;5064711;28;20025;-71
2022/03/25 06:46:00;;;;;;;98.25;32.80;;;6.80;99.90;;;;;;5054118;28;20028;-71
2022/03/25 06:48:26;;;;;;;84.50;29.67;;;6.90;99.90;;;;;;5043933;28;20108;-71
2022/03/25 06:50:53;;;;;;;98.15;31.23;;;7.00;99.90;;;;;;5065918;28;20075;-70
2022/03/25 06:53:19;;;;;;;70.63;29.08;;;7.10;99.90;;;;;;5064550;28;20017;-71
2022/03/25 06:55:44;;;;;;;78.43;29.60;;;7.20;99.90;;;;;;5066169;28;20104;-70
2022/03/25 06:58:11;;;;;;;78.40;30.98;;;7.30;99.90;;;;;;5065862;28;20029;-70
2022/03/25 07:00:37;;;;;;;79.55;30.27;;;7.40;99.90;;;;;;5065838;28;20037;-70
2022/03/25 07:03:04;;;;;;;75.70;29.60;;;7.50;99.90;;;;;;5066173;28;20053;-71
2022/03/25 07:05:31;;;;;;;86.28;30.67;;;7.60;99.90;;;;;;5066079;28;20033;-69
2022/03/25 07:07:58;;;;;;;80.32;30.77;;;7.70;99.90;;;;;;5065480;28;20025;-70
2022/03/25 07:10:26;;;;;;;81.75;30.73;;;7.80;99.90;;;;;;5065606;28;20056;-71
2022/03/25 07:12:53;;;;;;;73.60;27.95;;;8.00;99.90;;;;;;5065511;28;20040;-71
2022/03/25 07:15:20;;;;;;;77.35;30.50;;;8.10;99.90;;;;;;5065283;28;20039;-70
2022/03/25 07:17:46;;;;;;;66.75;27.92;;;8.20;99.90;;;;;;5064890;28;20055;-70
2022/03/25 07:20:14;;;;;;;68.20;28.42;;;8.30;99.90;;;;;;5065625;28;20025;-70
2022/03/25 07:22:49;;;;;;;64.82;26.20;;;8.30;99.90;;;;;;5055022;28;20028;-71
2022/03/25 07:25:15;;;;;;;77.43;30.17;;;8.40;99.90;;;;;;5058314;28;20042;-70
2022/03/25 07:27:42;;;;;;;78.28;28.73;;;8.50;99.90;;;;;;5045515;28;20148;-70
2022/03/25 07:30:11;;;;;;;72.18;28.90;;;8.60;99.90;;;;;;5045378;28;20187;-70
2022/03/25 07:32:37;;;;;;;71.97;29.15;;;8.80;99.90;;;;;;5045548;28;20037;-70
2022/03/25 07:35:02;;;;;;;69.80;28.23;;;8.90;99.90;;;;;;5051547;28;20087;-71
2022/03/25 07:37:28;;;;;;;73.22;29.58;;;9.10;99.90;;;;;;5052267;28;20044;-70
2022/03/25 07:39:54;;;;;;;76.95;27.77;;;9.30;99.90;;;;;;5045060;28;20028;-70
2022/03/25 07:42:20;;;;;;;74.82;28.33;;;9.50;99.90;;;;;;5044528;28;20026;-70
2022/03/25 07:44:47;;;;;;;68.57;26.35;;;9.60;99.90;;;;;;5060484;28;20036;-72
2022/03/25 07:47:14;;;;;;;64.70;25.10;;;9.80;99.90;;;;;;5056603;28;20041;-72
2022/03/25 07:49:43;;;;;;;67.60;25.90;;;9.90;99.90;;;;;;5048107;28;20121;-72
2022/03/25 07:52:14;;;;;;;67.05;27.42;;;10.00;99.90;;;;;;5056609;28;20029;-70
2022/03/25 07:54:41;;;;;;;65.13;26.85;;;10.20;99.90;;;;;;5042921;28;20401;-72
2022/03/25 07:57:07;;;;;;;61.33;25.55;;;10.30;99.90;;;;;;5054136;28;20063;-72
2022/03/25 07:59:34;;;;;;;66.47;26.95;;;10.40;99.90;;;;;;5047378;28;20029;-70
2022/03/25 08:02:00;;;;;;;62.88;26.02;;;10.60;99.90;;;;;;5060129;28;20067;-72
2022/03/25 08:04:25;;;;;;;64.53;25.63;;;10.80;99.90;;;;;;5046096;28;20029;-70
2022/03/25 08:06:52;;;;;;;61.53;24.25;;;11.00;99.90;;;;;;5051942;28;20059;-72
2022/03/25 08:09:18;;;;;;;70.20;25.73;;;11.10;99.90;;;;;;5064577;28;21868;-70
2022/03/25 08:11:45;;;;;;;88.43;27.95;;;11.30;99.90;;;;;;5064537;28;20013;-71
2022/03/25 08:14:12;;;;;;;64.38;25.25;;;11.50;99.90;;;;;;5064794;28;20029;-73
2022/03/25 08:16:38;;;;;;;69.55;25.67;;;11.70;99.90;;;;;;5064431;28;20105;-71
2022/03/25 08:19:15;;;;;;;76.47;26.10;;;11.90;99.90;;;;;;5057876;28;20046;-72
2022/03/25 08:21:40;;;;;;;66.25;25.45;;;12.10;99.90;;;;;;5049472;28;20498;-71
2022/03/25 08:29:38;;;;;;;56.63;23.25;;;12.60;99.90;;;;;;5063528;28;20076;-71
2022/03/25 08:32:05;;;;;;;65.07;24.05;;;12.60;99.90;;;;;;5048480;28;20046;-72
2022/03/25 08:34:30;;;;;;;57.20;23.58;;;12.80;99.90;;;;;;5058800;28;20029;-73
2022/03/25 08:36:56;;;;;;;65.72;25.60;;;12.90;99.90;;;;;;5063320;28;20080;-72
2022/03/25 08:39:24;;;;;;;74.65;27.40;;;13.00;99.90;;;;;;5059031;28;20033;-72
2022/03/25 08:41:50;;;;;;;68.40;26.83;;;13.10;99.90;;;;;;5048665;28;20056;-72
2022/03/25 08:44:15;;;;;;;52.03;21.42;;;13.20;99.90;;;;;;5048414;28;20029;-72
2022/03/25 08:46:41;;;;;;;59.25;19.83;;;13.30;99.90;;;;;;5048203;28;20084;-70
2022/03/25 08:49:08;;;;;;;58.90;19.48;;;13.50;99.90;;;;;;5048409;28;20095;-72
2022/03/25 08:51:37;;;;;;;56.22;21.25;;;13.60;99.90;;;;;;5048178;28;20021;-70
2022/03/25 08:54:03;;;;;;;53.58;19.20;;;13.70;99.90;;;;;;5062583;28;20025;-70
2022/03/25 08:56:29;;;;;;;45.58;17.33;;;13.70;99.90;;;;;;5068318;28;20043;-71
2022/03/25 08:58:58;;;;;;;43.72;17.88;;;13.80;99.90;;;;;;5068018;28;20488;-73
2022/03/25 09:01:31;;;;;;;42.47;17.80;;;14.00;99.90;;;;;;5050729;28;20025;-71
2022/03/25 09:03:58;;;;;;;50.97;18.98;;;14.10;99.90;;;;;;5050127;28;20024;-73
2022/03/25 09:06:23;;;;;;;45.78;16.10;;;14.30;99.90;;;;;;5050675;28;20151;-72
2022/03/25 09:08:51;;;;;;;43.35;16.13;;;14.50;99.90;;;;;;5061475;28;20424;-72
2022/03/25 09:11:17;;;;;;;48.95;16.23;;;14.70;99.90;;;;;;5053212;28;20123;-72
2022/03/25 09:13:42;;;;;;;40.50;15.30;;;14.90;99.90;;;;;;5052565;28;20359;-73
2022/03/25 09:16:09;;;;;;;41.05;16.17;;;15.10;99.90;;;;;;5045976;28;20025;-72
2022/03/25 09:18:45;;;;;;;41.67;14.95;;;15.30;99.90;;;;;;5048785;28;20052;-71
2022/03/25 09:21:11;;;;;;;43.10;14.98;;;15.50;99.90;;;;;;5054408;28;20025;-71
2022/03/25 09:23:49;;;;;;;37.85;14.90;;;15.70;99.90;;;;;;5045454;28;20040;-71
2022/03/25 09:26:29;;;;;;;42.08;15.65;;;15.90;99.90;;;;;;5038002;28;20033;-70
2022/03/25 09:28:54;;;;;;;42.78;17.30;;;16.10;99.90;;;;;;5062411;28;20029;-70
2022/03/25 09:31:20;;;;;;;40.63;16.08;;;16.30;99.90;;;;;;5050084;28;20049;-70
2022/03/25 09:33:46;;;;;;;37.88;16.50;;;16.40;99.90;;;;;;5055618;28;20049;-71
2022/03/25 09:36:14;;;;;;;50.42;15.27;;;16.70;99.90;;;;;;5065899;28;20491;-71
2022/03/25 09:38:40;;;;;;;45.53;16.08;;;16.90;99.90;;;;;;5067177;28;20045;-69
2022/03/25 09:41:10;;;;;;;39.95;16.30;;;17.00;99.90;;;;;;5067001;28;20809;-70
2022/03/25 09:43:38;;;;;;;28.25;12.82;;;17.10;99.90;;;;;;5066907;28;20036;-70
2022/03/25 09:46:05;;;;;;;37.70;15.55;;;17.20;99.90;;;;;;5059336;28;20061;-70
2022/03/25 09:48:31;;;;;;;42.75;14.73;;;17.20;99.90;;;;;;5058838;28;20469;-69
2022/03/25 09:50:56;;;;;;;45.20;17.05;;;17.30;99.90;;;;;;5055302;28;20103;-70
2022/03/25 09:53:26;;;;;;;44.83;16.83;;;17.50;99.90;;;;;;5048084;28;20096;-70
2022/03/25 09:55:52;;;;;;;49.33;17.90;;;17.60;99.90;;;;;;5065570;28;20090;-71
2022/03/25 09:58:22;;;;;;;48.83;16.55;;;17.60;99.90;;;;;;5059297;28;20037;-71
2022/03/25 10:00:52;;;;;;;50.95;16.75;;;17.70;99.90;;;;;;5053307;28;20065;-70
2022/03/25 10:03:26;;;;;;;42.72;16.55;;;17.90;99.90;;;;;;5053462;28;20462;-69
2022/03/25 10:06:18;;;;;;;45.45;15.25;;;18.10;99.90;;;;;;5060875;28;20020;-71
2022/03/25 10:08:45;;;;;;;37.47;14.00;;;18.30;99.90;;;;;;5061399;28;20044;-72
2022/03/25 10:11:20;;;;;;;39.55;15.18;;;18.50;99.90;;;;;;5064381;28;20037;-70
2022/03/25 10:13:46;;;;;;;33.58;14.10;;;18.70;99.90;;;;;;5063953;28;20059;-71
2022/03/25 10:16:31;;;;;;;44.83;17.27;;;18.90;99.90;;;;;;5065207;28;20029;-71
2022/03/25 10:18:58;;;;;;;45.17;14.95;;;19.00;99.90;;;;;;5046718;28;20056;-70
2022/03/25 10:21:24;;;;;;;42.83;16.25;;;19.10;99.90;;;;;;5054378;28;20066;-69
2022/03/25 10:23:51;;;;;;;43.60;15.88;;;19.10;99.90;;;;;;5065031;28;20088;-70
2022/03/25 10:26:16;;;;;;;39.95;15.77;;;19.20;99.90;;;;;;5064887;28;20036;-69
2022/03/25 10:28:44;;;;;;;47.00;16.20;;;19.30;99.90;;;;;;5060818;28;20030;-71
2022/03/25 10:31:17;;;;;;;46.60;17.08;;;19.30;99.90;;;;;;5045367;28;20120;-70
2022/03/25 10:33:42;;;;;;;47.08;16.80;;;19.30;99.90;;;;;;5061825;28;20037;-71
2022/03/25 10:36:11;;;;;;;42.90;16.60;;;19.40;99.90;;;;;;5045525;28;20033;-74
2022/03/25 10:38:50;;;;;;;54.30;17.90;;;19.40;99.90;;;;;;5045035;28;20033;-72
2022/03/25 10:41:21;;;;;;;42.60;17.95;;;19.60;99.90;;;;;;5062374;28;20067;-72
2022/03/25 10:43:54;;;;;;;38.05;15.55;;;19.80;99.90;;;;;;5064969;28;20021;-70
2022/03/25 10:46:40;;;;;;;39.60;16.17;;;20.10;99.90;;;;;;5065133;28;20116;-70
2022/03/25 10:49:17;;;;;;;38.85;15.95;;;20.10;99.90;;;;;;5065164;28;20052;-72
2022/03/25 10:51:56;;;;;;;49.67;17.55;;;20.20;99.80;;;;;;5064535;28;20048;-70
2022/03/25 10:54:27;;;;;;;46.13;17.00;;;20.20;99.90;;;;;;5052173;28;20021;-72
2022/03/25 10:56:58;;;;;;;50.08;16.45;;;20.30;99.90;;;;;;5044807;28;20034;-69
2022/03/25 10:59:30;;;;;;;33.65;14.57;;;20.40;99.90;;;;;;5044899;28;20129;-71
2022/03/25 11:01:58;;;;;;;39.13;16.27;;;20.50;99.90;;;;;;5059026;28;20025;-72
2022/03/25 11:04:25;;;;;;;35.63;15.77;;;20.70;99.90;;;;;;5064549;28;20037;-71
2022/03/25 11:06:52;;;;;;;41.35;16.63;;;20.80;99.90;;;;;;5063983;28;20036;-71
2022/03/25 11:09:18;;;;;;;38.90;14.68;;;20.70;99.10;;;;;;5064132;28;20020;-70
2022/03/25 11:11:48;;;;;;;38.22;16.38;;;20.80;99.90;;;;;;5064261;28;20036;-71
2022/03/25 11:14:15;;;;;;;43.30;17.63;;;20.90;99.20;;;;;;5064671;28;20017;-69
2022/03/25 11:16:47;;;;;;;37.85;15.02;;;21.00;98.40;;;;;;5056321;28;20048;-69
2022/03/25 11:19:14;;;;;;;44.88;15.63;;;21.10;96.80;;;;;;5044222;28;20053;-70
2022/03/25 11:21:46;;;;;;;36.78;15.68;;;21.20;98.60;;;;;;5045118;28;20036;-70
2022/03/25 11:24:31;;;;;;;44.85;15.85;;;21.30;97.20;;;;;;5044552;28;20033;-71
2022/03/25 11:27:00;;;;;;;40.97;14.23;;;21.30;95.40;;;;;;5046620;28;20030;-71
2022/03/25 11:29:28;;;;;;;38.38;14.48;;;21.20;97.60;;;;;;5056330;28;20048;-72
2022/03/25 11:32:10;;;;;;;47.95;14.98;;;21.40;97.20;;;;;;5045390;28;20035;-72
2022/03/25 11:34:44;;;;;;;37.22;15.52;;;21.60;96.30;;;;;;5063159;28;20096;-72
2022/03/25 11:37:18;;;;;;;41.40;14.40;;;21.70;96.20;;;;;;5064493;28;20033;-73
2022/03/25 11:39:43;;;;;;;35.80;14.88;;;21.60;94.40;;;;;;5063692;28;20021;-71
2022/03/25 11:42:36;;;;;;;43.33;14.73;;;21.60;95.80;;;;;;5064036;28;20121;-72
2022/03/25 11:45:24;;;;;;;36.08;15.15;;;21.80;94.00;;;;;;5063836;28;20041;-70
2022/03/25 11:47:59;;;;;;;38.55;14.95;;;22.00;93.60;;;;;;5047393;28;20045;-71
2022/03/25 11:50:26;;;;;;;33.00;14.50;;;22.20;93.40;;;;;;5057275;28;20041;-72
2022/03/25 11:52:52;;;;;;;37.53;14.20;;;22.40;94.90;;;;;;5069357;28;20407;-71
2022/03/25 11:55:17;;;;;;;43.63;14.50;;;22.60;94.70;;;;;;5064192;28;20033;-70
2022/03/25 11:57:44;;;;;;;37.92;13.00;;;22.50;93.00;;;;;;5063259;28;20068;-72
2022/03/25 12:00:24;;;;;;;32.28;12.95;;;22.60;91.90;;;;;;5058919;28;20063;-72
2022/03/25 12:03:06;;;;;;;34.65;11.77;;;22.60;92.70;;;;;;5063611;28;20024;-71
2022/03/25 12:05:35;;;;;;;31.58;11.25;;;22.40;91.80;;;;;;5063249;28;20046;-71
2022/03/25 12:08:28;;;;;;;28.75;12.55;;;22.50;91.60;;;;;;5063624;28;20025;-71
2022/03/25 12:10:54;;;;;;;27.10;11.52;;;22.60;90.80;;;;;;5063474;28;20040;-73
2022/03/25 12:13:21;;;;;;;22.95;9.40;;;22.80;92.50;;;;;;5063684;28;20025;-74
2022/03/25 12:15:48;;;;;;;22.40;8.20;;;22.90;91.10;;;;;;5063200;28;20032;-73
2022/03/25 12:18:42;;;;;;;18.08;7.35;;;22.80;90.70;;;;;;5069940;28;20052;-72
2022/03/25 12:21:37;;;;;;;22.08;8.68;;;23.00;90.10;;;;;;5066999;28;20046;-72
2022/03/25 12:24:04;;;;;;;22.85;8.13;;;23.20;89.60;;;;;;5058966;28;20029;-72
2022/03/25 12:26:35;;;;;;;19.08;7.70;;;23.40;87.70;;;;;;5063939;28;20088;-71
2022/03/25 12:29:02;;;;;;;26.95;8.32;;;23.40;89.50;;;;;;5044854;28;20377;-72
2022/03/25 12:31:29;;;;;;;21.98;8.63;;;23.30;88.90;;;;;;5062193;28;20053;-71
2022/03/25 12:34:02;;;;;;;16.95;7.97;;;23.40;87.80;;;;;;5049878;28;20061;-71
2022/03/25 12:36:43;;;;;;;23.63;7.60;;;23.70;85.60;;;;;;5060117;28;20382;-71
2022/03/25 12:39:13;;;;;;;19.40;8.05;;;23.70;84.80;;;;;;5062876;28;20024;-72
2022/03/25 12:41:45;;;;;;;20.13;6.95;;;23.90;84.80;;;;;;5051871;28;20032;-73
2022/03/25 12:44:11;;;;;;;21.75;8.30;;;24.10;82.10;;;;;;5060864;28;20033;-72